sensor_id;sensor_type;location;lat;lon;timestamp;P1;durP1;ratioP1;P2;durP2;ratioP2
71106;SDS011;58763;47.982;11.516;2023-04-30T00:00:06;5.30;;;3.15;;
71106;SDS011;58763;47.982;11.516;2023-04-30T00:02:34;7.20;;;3.67;;
71106;SDS011;58763;47.982;11.516;2023-04-30T00:05:00;5.82;;;3.08;;
71106;SDS011;58763;47.982;11.516;2023-04-30T00:07:25;6.28;;;3.50;;
71106;SDS011;58763;47.982;11.516;2023-04-30T00:09:50;7.15;;;3.50;;
71106;SDS011;58763;47.982;11.516;2023-04-30T00:12:16;7.30;;;3.88;;
71106;SDS011;58763;47.982;11.516;2023-04-30T00:14:41;6.15;;;3.35;;
71106;SDS011;58763;47.982;11.516;2023-04-30T00:17:07;6.70;;;3.35;;
71106;SDS011;58763;47.982;11.516;2023-04-30T00:19:32;6.78;;;3.70;;
71106;SDS011;58763;47.982;11.516;2023-04-30T00:21:57;6.45;;;3.63;;
71106;SDS011;58763;47.982;11.516;2023-04-30T00:24:25;6.07;;;3.50;;
71106;SDS011;58763;47.982;11.516;2023-04-30T00:26:54;7.68;;;3.95;;
71106;SDS011;58763;47.982;11.516;2023-04-30T00:29:19;7.15;;;4.10;;
71106;SDS011;58763;47.982;11.516;2023-04-30T00:31:44;8.07;;;4.60;;
71106;SDS011;58763;47.982;11.516;2023-04-30T00:34:10;8.15;;;4.20;;
71106;SDS011;58763;47.982;11.516;2023-04-30T00:36:35;7.20;;;3.60;;
71106;SDS011;58763;47.982;11.516;2023-04-30T00:39:00;7.70;;;4.45;;
71106;SDS011;58763;47.982;11.516;2023-04-30T00:41:26;7.88;;;4.07;;
71106;SDS011;58763;47.982;11.516;2023-04-30T00:43:52;5.90;;;3.65;;
71106;SDS011;58763;47.982;11.516;2023-04-30T00:46:17;6.03;;;3.47;;
71106;SDS011;58763;47.982;11.516;2023-04-30T00:48:43;7.30;;;4.03;;
71106;SDS011;58763;47.982;11.516;2023-04-30T00:51:08;6.63;;;3.80;;
71106;SDS011;58763;47.982;11.516;2023-04-30T00:53:34;6.82;;;4.07;;
71106;SDS011;58763;47.982;11.516;2023-04-30T00:56:01;7.00;;;3.97;;
71106;SDS011;58763;47.982;11.516;2023-04-30T00:58:26;6.38;;;3.47;;
71106;SDS011;58763;47.982;11.516;2023-04-30T01:00:52;7.47;;;3.97;;
71106;SDS011;58763;47.982;11.516;2023-04-30T01:03:17;9.55;;;3.60;;
71106;SDS011;58763;47.982;11.516;2023-04-30T01:05:44;7.10;;;4.18;;
71106;SDS011;58763;47.982;11.516;2023-04-30T01:08:09;7.13;;;3.63;;
71106;SDS011;58763;47.982;11.516;2023-04-30T01:10:40;7.22;;;3.65;;
71106;SDS011;58763;47.982;11.516;2023-04-30T01:13:16;6.88;;;3.80;;
71106;SDS011;58763;47.982;11.516;2023-04-30T01:16:14;7.20;;;3.88;;
71106;SDS011;58763;47.982;11.516;2023-04-30T01:18:51;7.32;;;4.00;;
71106;SDS011;58763;47.982;11.516;2023-04-30T01:21:29;7.75;;;4.07;;
71106;SDS011;58763;47.982;11.516;2023-04-30T01:27:06;6.75;;;3.85;;
71106;SDS011;58763;47.982;11.516;2023-04-30T01:29:54;7.13;;;4.05;;
71106;SDS011;58763;47.982;11.516;2023-04-30T01:32:21;7.82;;;4.30;;
71106;SDS011;58763;47.982;11.516;2023-04-30T01:34:46;6.50;;;3.65;;
71106;SDS011;58763;47.982;11.516;2023-04-30T01:48:06;8.07;;;4.20;;
71106;SDS011;58763;47.982;11.516;2023-04-30T01:50:46;6.72;;;3.90;;
71106;SDS011;58763;47.982;11.516;2023-04-30T01:55:43;6.53;;;3.95;;
71106;SDS011;58763;47.982;11.516;2023-04-30T01:58:15;8.07;;;4.30;;
71106;SDS011;58763;47.982;11.516;2023-04-30T02:00:42;7.95;;;4.38;;
71106;SDS011;58763;47.982;11.516;2023-04-30T02:03:07;6.60;;;3.95;;
71106;SDS011;58763;47.982;11.516;2023-04-30T02:05:33;6.22;;;3.80;;
71106;SDS011;58763;47.982;11.516;2023-04-30T02:07:58;6.90;;;4.13;;
71106;SDS011;58763;47.982;11.516;2023-04-30T02:10:25;5.78;;;3.28;;
71106;SDS011;58763;47.982;11.516;2023-04-30T02:12:51;8.43;;;3.88;;
71106;SDS011;58763;47.982;11.516;2023-04-30T02:15:17;6.18;;;3.60;;
71106;SDS011;58763;47.982;11.516;2023-04-30T02:17:43;7.05;;;3.95;;
71106;SDS011;58763;47.982;11.516;2023-04-30T02:20:08;7.53;;;3.95;;
71106;SDS011;58763;47.982;11.516;2023-04-30T02:22:35;7.50;;;3.90;;
71106;SDS011;58763;47.982;11.516;2023-04-30T02:25:00;6.18;;;3.75;;
71106;SDS011;58763;47.982;11.516;2023-04-30T02:27:28;7.22;;;4.20;;
71106;SDS011;58763;47.982;11.516;2023-04-30T02:29:54;7.35;;;4.15;;
71106;SDS011;58763;47.982;11.516;2023-04-30T02:32:20;6.75;;;3.90;;
71106;SDS011;58763;47.982;11.516;2023-04-30T02:34:46;8.25;;;4.50;;
71106;SDS011;58763;47.982;11.516;2023-04-30T02:37:11;7.15;;;4.50;;
71106;SDS011;58763;47.982;11.516;2023-04-30T02:39:36;8.55;;;4.85;;
71106;SDS011;58763;47.982;11.516;2023-04-30T02:42:02;7.97;;;4.18;;
71106;SDS011;58763;47.982;11.516;2023-04-30T02:44:28;7.85;;;4.50;;
71106;SDS011;58763;47.982;11.516;2023-04-30T02:46:54;6.78;;;4.25;;
71106;SDS011;58763;47.982;11.516;2023-04-30T02:49:19;7.97;;;4.75;;
71106;SDS011;58763;47.982;11.516;2023-04-30T02:51:44;7.97;;;4.70;;
71106;SDS011;58763;47.982;11.516;2023-04-30T02:54:10;7.60;;;4.55;;
71106;SDS011;58763;47.982;11.516;2023-04-30T02:56:35;9.27;;;4.53;;
71106;SDS011;58763;47.982;11.516;2023-04-30T02:59:02;7.80;;;4.30;;
71106;SDS011;58763;47.982;11.516;2023-04-30T03:01:28;7.80;;;4.20;;
71106;SDS011;58763;47.982;11.516;2023-04-30T03:03:53;9.30;;;5.28;;
71106;SDS011;58763;47.982;11.516;2023-04-30T03:06:19;8.38;;;5.07;;
71106;SDS011;58763;47.982;11.516;2023-04-30T03:08:44;7.05;;;4.55;;
71106;SDS011;58763;47.982;11.516;2023-04-30T03:11:10;8.82;;;5.40;;
71106;SDS011;58763;47.982;11.516;2023-04-30T03:13:35;8.43;;;4.65;;
71106;SDS011;58763;47.982;11.516;2023-04-30T03:16:01;7.70;;;4.93;;
71106;SDS011;58763;47.982;11.516;2023-04-30T03:18:30;8.95;;;5.07;;
71106;SDS011;58763;47.982;11.516;2023-04-30T03:20:56;7.95;;;4.72;;
71106;SDS011;58763;47.982;11.516;2023-04-30T03:23:22;8.98;;;5.45;;
71106;SDS011;58763;47.982;11.516;2023-04-30T03:25:48;8.98;;;5.22;;
71106;SDS011;58763;47.982;11.516;2023-04-30T03:28:14;8.15;;;4.90;;
71106;SDS011;58763;47.982;11.516;2023-04-30T03:30:39;8.38;;;4.82;;
71106;SDS011;58763;47.982;11.516;2023-04-30T03:33:05;8.80;;;5.32;;
71106;SDS011;58763;47.982;11.516;2023-04-30T03:35:31;9.30;;;5.65;;
71106;SDS011;58763;47.982;11.516;2023-04-30T03:37:58;9.30;;;5.68;;
71106;SDS011;58763;47.982;11.516;2023-04-30T03:40:24;9.55;;;5.68;;
71106;SDS011;58763;47.982;11.516;2023-04-30T03:42:49;8.77;;;5.68;;
71106;SDS011;58763;47.982;11.516;2023-04-30T03:45:14;8.73;;;5.88;;
71106;SDS011;58763;47.982;11.516;2023-04-30T03:47:42;9.68;;;6.10;;
71106;SDS011;58763;47.982;11.516;2023-04-30T03:50:08;9.55;;;5.50;;
71106;SDS011;58763;47.982;11.516;2023-04-30T03:52:33;8.68;;;5.32;;
71106;SDS011;58763;47.982;11.516;2023-04-30T03:55:00;9.65;;;5.57;;
71106;SDS011;58763;47.982;11.516;2023-04-30T03:57:29;10.85;;;6.13;;
71106;SDS011;58763;47.982;11.516;2023-04-30T03:59:56;10.55;;;6.20;;
71106;SDS011;58763;47.982;11.516;2023-04-30T04:02:21;10.30;;;6.20;;
71106;SDS011;58763;47.982;11.516;2023-04-30T04:04:47;10.20;;;5.65;;
71106;SDS011;58763;47.982;11.516;2023-04-30T04:07:13;9.57;;;5.90;;
71106;SDS011;58763;47.982;11.516;2023-04-30T04:09:39;10.32;;;6.22;;
71106;SDS011;58763;47.982;11.516;2023-04-30T04:12:04;11.98;;;6.65;;
71106;SDS011;58763;47.982;11.516;2023-04-30T04:14:30;9.65;;;6.07;;
71106;SDS011;58763;47.982;11.516;2023-04-30T04:16:55;10.40;;;6.35;;
71106;SDS011;58763;47.982;11.516;2023-04-30T04:19:22;9.85;;;6.25;;
71106;SDS011;58763;47.982;11.516;2023-04-30T04:21:47;11.75;;;6.70;;
71106;SDS011;58763;47.982;11.516;2023-04-30T04:24:13;10.05;;;6.68;;
71106;SDS011;58763;47.982;11.516;2023-04-30T04:26:38;11.48;;;6.68;;
71106;SDS011;58763;47.982;11.516;2023-04-30T04:29:04;9.77;;;5.80;;
71106;SDS011;58763;47.982;11.516;2023-04-30T04:31:29;11.13;;;6.13;;
71106;SDS011;58763;47.982;11.516;2023-04-30T04:33:57;12.68;;;6.72;;
71106;SDS011;58763;47.982;11.516;2023-04-30T04:36:24;9.13;;;5.85;;
71106;SDS011;58763;47.982;11.516;2023-04-30T04:38:54;14.95;;;6.68;;
71106;SDS011;58763;47.982;11.516;2023-04-30T04:41:29;10.05;;;6.53;;
71106;SDS011;58763;47.982;11.516;2023-04-30T04:43:57;10.13;;;6.38;;
71106;SDS011;58763;47.982;11.516;2023-04-30T04:46:23;10.60;;;6.72;;
71106;SDS011;58763;47.982;11.516;2023-04-30T04:48:48;13.13;;;6.80;;
71106;SDS011;58763;47.982;11.516;2023-04-30T04:51:14;13.82;;;7.30;;
71106;SDS011;58763;47.982;11.516;2023-04-30T04:53:39;11.68;;;7.35;;
71106;SDS011;58763;47.982;11.516;2023-04-30T04:56:05;12.48;;;6.53;;
71106;SDS011;58763;47.982;11.516;2023-04-30T04:58:31;13.20;;;7.10;;
71106;SDS011;58763;47.982;11.516;2023-04-30T05:00:57;10.68;;;6.97;;
71106;SDS011;58763;47.982;11.516;2023-04-30T05:03:24;11.63;;;7.40;;
71106;SDS011;58763;47.982;11.516;2023-04-30T05:05:50;12.45;;;6.72;;
71106;SDS011;58763;47.982;11.516;2023-04-30T05:08:16;12.20;;;7.07;;
71106;SDS011;58763;47.982;11.516;2023-04-30T05:10:41;13.45;;;7.05;;
71106;SDS011;58763;47.982;11.516;2023-04-30T05:13:07;11.98;;;6.75;;
71106;SDS011;58763;47.982;11.516;2023-04-30T05:15:32;12.13;;;7.32;;
71106;SDS011;58763;47.982;11.516;2023-04-30T05:17:58;11.02;;;6.78;;
71106;SDS011;58763;47.982;11.516;2023-04-30T05:20:23;11.15;;;7.15;;
71106;SDS011;58763;47.982;11.516;2023-04-30T05:22:49;12.27;;;7.07;;
71106;SDS011;58763;47.982;11.516;2023-04-30T05:25:14;11.98;;;7.18;;
71106;SDS011;58763;47.982;11.516;2023-04-30T05:27:39;11.48;;;7.18;;
71106;SDS011;58763;47.982;11.516;2023-04-30T05:30:05;12.13;;;7.78;;
71106;SDS011;58763;47.982;11.516;2023-04-30T05:32:31;12.40;;;7.45;;
71106;SDS011;58763;47.982;11.516;2023-04-30T05:34:56;10.88;;;7.60;;
71106;SDS011;58763;47.982;11.516;2023-04-30T05:37:22;13.88;;;7.85;;
71106;SDS011;58763;47.982;11.516;2023-04-30T05:39:47;11.60;;;7.50;;
71106;SDS011;58763;47.982;11.516;2023-04-30T05:42:13;11.77;;;7.47;;
71106;SDS011;58763;47.982;11.516;2023-04-30T05:44:41;12.75;;;7.63;;
71106;SDS011;58763;47.982;11.516;2023-04-30T05:47:06;12.15;;;8.05;;
71106;SDS011;58763;47.982;11.516;2023-04-30T05:49:32;12.23;;;7.28;;
71106;SDS011;58763;47.982;11.516;2023-04-30T05:51:57;11.40;;;7.55;;
71106;SDS011;58763;47.982;11.516;2023-04-30T05:54:23;13.13;;;8.27;;
71106;SDS011;58763;47.982;11.516;2023-04-30T05:56:48;14.10;;;8.20;;
71106;SDS011;58763;47.982;11.516;2023-04-30T05:59:14;11.85;;;7.15;;
71106;SDS011;58763;47.982;11.516;2023-04-30T06:01:39;11.52;;;7.10;;
71106;SDS011;58763;47.982;11.516;2023-04-30T06:04:05;13.02;;;7.97;;
71106;SDS011;58763;47.982;11.516;2023-04-30T06:06:31;15.18;;;7.35;;
71106;SDS011;58763;47.982;11.516;2023-04-30T06:08:56;11.70;;;7.20;;
71106;SDS011;58763;47.982;11.516;2023-04-30T06:11:22;12.68;;;7.70;;
71106;SDS011;58763;47.982;11.516;2023-04-30T06:13:49;12.00;;;7.95;;
71106;SDS011;58763;47.982;11.516;2023-04-30T06:16:15;11.45;;;7.25;;
71106;SDS011;58763;47.982;11.516;2023-04-30T06:18:40;13.98;;;7.57;;
71106;SDS011;58763;47.982;11.516;2023-04-30T06:21:06;11.27;;;7.63;;
71106;SDS011;58763;47.982;11.516;2023-04-30T06:23:31;10.73;;;6.82;;
71106;SDS011;58763;47.982;11.516;2023-04-30T06:25:57;11.02;;;6.95;;
71106;SDS011;58763;47.982;11.516;2023-04-30T06:28:22;12.88;;;7.32;;
71106;SDS011;58763;47.982;11.516;2023-04-30T06:30:48;11.68;;;7.20;;
71106;SDS011;58763;47.982;11.516;2023-04-30T06:33:13;12.82;;;7.28;;
71106;SDS011;58763;47.982;11.516;2023-04-30T06:35:39;11.57;;;7.10;;
71106;SDS011;58763;47.982;11.516;2023-04-30T06:38:04;10.18;;;6.80;;
71106;SDS011;58763;47.982;11.516;2023-04-30T06:40:30;10.85;;;7.38;;
71106;SDS011;58763;47.982;11.516;2023-04-30T06:42:55;10.63;;;6.18;;
71106;SDS011;58763;47.982;11.516;2023-04-30T06:45:20;10.20;;;6.80;;
71106;SDS011;58763;47.982;11.516;2023-04-30T06:47:46;10.02;;;6.68;;
71106;SDS011;58763;47.982;11.516;2023-04-30T06:50:11;11.50;;;6.88;;
71106;SDS011;58763;47.982;11.516;2023-04-30T06:52:39;10.60;;;6.63;;
71106;SDS011;58763;47.982;11.516;2023-04-30T06:55:05;10.50;;;6.38;;
71106;SDS011;58763;47.982;11.516;2023-04-30T06:57:30;9.55;;;6.55;;
71106;SDS011;58763;47.982;11.516;2023-04-30T06:59:56;11.80;;;6.93;;
71106;SDS011;58763;47.982;11.516;2023-04-30T07:02:22;9.43;;;6.32;;
71106;SDS011;58763;47.982;11.516;2023-04-30T07:04:47;10.75;;;6.70;;
71106;SDS011;58763;47.982;11.516;2023-04-30T07:07:13;9.38;;;6.30;;
71106;SDS011;58763;47.982;11.516;2023-04-30T07:09:38;9.93;;;6.25;;
71106;SDS011;58763;47.982;11.516;2023-04-30T07:12:04;10.07;;;6.20;;
71106;SDS011;58763;47.982;11.516;2023-04-30T07:14:30;9.68;;;6.43;;
71106;SDS011;58763;47.982;11.516;2023-04-30T07:16:55;8.63;;;5.65;;
71106;SDS011;58763;47.982;11.516;2023-04-30T07:19:20;10.30;;;6.60;;
71106;SDS011;58763;47.982;11.516;2023-04-30T07:21:47;8.77;;;5.82;;
71106;SDS011;58763;47.982;11.516;2023-04-30T07:24:12;8.35;;;5.88;;
71106;SDS011;58763;47.982;11.516;2023-04-30T07:26:38;8.60;;;5.90;;
71106;SDS011;58763;47.982;11.516;2023-04-30T07:29:03;9.35;;;6.20;;
71106;SDS011;58763;47.982;11.516;2023-04-30T07:31:29;8.25;;;5.57;;
71106;SDS011;58763;47.982;11.516;2023-04-30T07:33:54;8.20;;;5.35;;
71106;SDS011;58763;47.982;11.516;2023-04-30T07:36:20;8.13;;;5.20;;
71106;SDS011;58763;47.982;11.516;2023-04-30T07:38:46;9.15;;;5.25;;
71106;SDS011;58763;47.982;11.516;2023-04-30T07:41:12;8.35;;;5.50;;
71106;SDS011;58763;47.982;11.516;2023-04-30T07:43:37;6.75;;;4.85;;
71106;SDS011;58763;47.982;11.516;2023-04-30T07:46:03;7.60;;;4.82;;
71106;SDS011;58763;47.982;11.516;2023-04-30T07:48:28;9.73;;;4.78;;
71106;SDS011;58763;47.982;11.516;2023-04-30T07:50:54;9.20;;;4.70;;
71106;SDS011;58763;47.982;11.516;2023-04-30T07:53:21;6.65;;;4.22;;
71106;SDS011;58763;47.982;11.516;2023-04-30T07:55:49;7.60;;;4.60;;
71106;SDS011;58763;47.982;11.516;2023-04-30T07:58:15;7.00;;;4.72;;
71106;SDS011;58763;47.982;11.516;2023-04-30T08:00:40;6.95;;;4.30;;
71106;SDS011;58763;47.982;11.516;2023-04-30T08:03:06;6.28;;;4.18;;
71106;SDS011;58763;47.982;11.516;2023-04-30T08:05:32;8.02;;;4.40;;
71106;SDS011;58763;47.982;11.516;2023-04-30T08:07:57;7.07;;;4.30;;
71106;SDS011;58763;47.982;11.516;2023-04-30T08:10:23;6.30;;;4.00;;
71106;SDS011;58763;47.982;11.516;2023-04-30T08:12:49;6.55;;;4.15;;
71106;SDS011;58763;47.982;11.516;2023-04-30T08:15:14;7.45;;;4.50;;
71106;SDS011;58763;47.982;11.516;2023-04-30T08:17:40;7.38;;;4.43;;
71106;SDS011;58763;47.982;11.516;2023-04-30T08:20:05;6.82;;;4.50;;
71106;SDS011;58763;47.982;11.516;2023-04-30T08:22:31;7.95;;;4.35;;
71106;SDS011;58763;47.982;11.516;2023-04-30T08:24:57;8.98;;;4.50;;
71106;SDS011;58763;47.982;11.516;2023-04-30T08:27:25;7.50;;;4.55;;
71106;SDS011;58763;47.982;11.516;2023-04-30T08:29:51;7.05;;;4.50;;
71106;SDS011;58763;47.982;11.516;2023-04-30T08:32:17;6.85;;;4.28;;
71106;SDS011;58763;47.982;11.516;2023-04-30T08:34:43;6.75;;;4.10;;
71106;SDS011;58763;47.982;11.516;2023-04-30T08:37:08;6.90;;;4.30;;
71106;SDS011;58763;47.982;11.516;2023-04-30T08:39:34;6.53;;;4.20;;
71106;SDS011;58763;47.982;11.516;2023-04-30T08:42:00;7.05;;;4.30;;
71106;SDS011;58763;47.982;11.516;2023-04-30T08:44:28;7.10;;;4.20;;
71106;SDS011;58763;47.982;11.516;2023-04-30T08:46:54;6.82;;;4.47;;
71106;SDS011;58763;47.982;11.516;2023-04-30T08:49:21;6.43;;;4.28;;
71106;SDS011;58763;47.982;11.516;2023-04-30T08:51:47;5.80;;;3.85;;
71106;SDS011;58763;47.982;11.516;2023-04-30T08:54:13;6.57;;;3.85;;
71106;SDS011;58763;47.982;11.516;2023-04-30T08:56:40;6.13;;;3.78;;
71106;SDS011;58763;47.982;11.516;2023-04-30T08:59:05;6.32;;;3.65;;
71106;SDS011;58763;47.982;11.516;2023-04-30T09:01:32;6.90;;;3.80;;
71106;SDS011;58763;47.982;11.516;2023-04-30T09:03:58;5.97;;;3.85;;
71106;SDS011;58763;47.982;11.516;2023-04-30T09:06:24;5.80;;;3.60;;
71106;SDS011;58763;47.982;11.516;2023-04-30T09:08:49;5.20;;;3.65;;
71106;SDS011;58763;47.982;11.516;2023-04-30T09:13:59;5.05;;;3.38;;
71106;SDS011;58763;47.982;11.516;2023-04-30T09:16:26;6.40;;;3.85;;
71106;SDS011;58763;47.982;11.516;2023-04-30T09:18:54;6.85;;;4.60;;
71106;SDS011;58763;47.982;11.516;2023-04-30T09:21:30;6.93;;;4.50;;
71106;SDS011;58763;47.982;11.516;2023-04-30T09:23:58;6.63;;;4.13;;
71106;SDS011;58763;47.982;11.516;2023-04-30T09:26:37;5.60;;;4.00;;
71106;SDS011;58763;47.982;11.516;2023-04-30T09:29:03;6.38;;;4.10;;
71106;SDS011;58763;47.982;11.516;2023-04-30T09:31:33;6.93;;;4.40;;
71106;SDS011;58763;47.982;11.516;2023-04-30T09:34:00;6.05;;;3.97;;
71106;SDS011;58763;47.982;11.516;2023-04-30T09:36:25;6.28;;;4.00;;
71106;SDS011;58763;47.982;11.516;2023-04-30T09:38:52;5.97;;;4.03;;
71106;SDS011;58763;47.982;11.516;2023-04-30T09:41:26;7.22;;;4.30;;
71106;SDS011;58763;47.982;11.516;2023-04-30T09:43:56;6.85;;;4.03;;
71106;SDS011;58763;47.982;11.516;2023-04-30T09:46:34;5.93;;;4.43;;
71106;SDS011;58763;47.982;11.516;2023-04-30T09:49:04;6.90;;;4.22;;
71106;SDS011;58763;47.982;11.516;2023-04-30T09:51:30;5.00;;;3.58;;
71106;SDS011;58763;47.982;11.516;2023-04-30T09:53:56;5.95;;;4.40;;
71106;SDS011;58763;47.982;11.516;2023-04-30T09:56:25;7.10;;;4.22;;
71106;SDS011;58763;47.982;11.516;2023-04-30T09:58:52;6.28;;;4.18;;
71106;SDS011;58763;47.982;11.516;2023-04-30T10:01:19;7.88;;;4.78;;
71106;SDS011;58763;47.982;11.516;2023-04-30T10:03:47;8.15;;;4.10;;
71106;SDS011;58763;47.982;11.516;2023-04-30T10:06:14;6.93;;;4.63;;
71106;SDS011;58763;47.982;11.516;2023-04-30T10:08:47;7.28;;;5.13;;
71106;SDS011;58763;47.982;11.516;2023-04-30T10:11:20;5.68;;;4.07;;
71106;SDS011;58763;47.982;11.516;2023-04-30T10:13:56;6.75;;;4.43;;
71106;SDS011;58763;47.982;11.516;2023-04-30T10:18:57;7.00;;;5.25;;
71106;SDS011;58763;47.982;11.516;2023-04-30T10:21:27;7.70;;;4.55;;
71106;SDS011;58763;47.982;11.516;2023-04-30T10:23:53;6.60;;;4.43;;
71106;SDS011;58763;47.982;11.516;2023-04-30T10:26:19;6.25;;;4.60;;
71106;SDS011;58763;47.982;11.516;2023-04-30T10:28:45;6.10;;;3.85;;
71106;SDS011;58763;47.982;11.516;2023-04-30T10:31:14;5.83;;;4.03;;
71106;SDS011;58763;47.982;11.516;2023-04-30T10:36:25;6.32;;;4.28;;
71106;SDS011;58763;47.982;11.516;2023-04-30T10:38:57;5.60;;;3.58;;
71106;SDS011;58763;47.982;11.516;2023-04-30T10:41:25;7.13;;;4.65;;
71106;SDS011;58763;47.982;11.516;2023-04-30T10:43:55;7.10;;;4.93;;
71106;SDS011;58763;47.982;11.516;2023-04-30T10:46:24;5.95;;;4.50;;
71106;SDS011;58763;47.982;11.516;2023-04-30T10:48:52;6.38;;;4.78;;
71106;SDS011;58763;47.982;11.516;2023-04-30T10:51:19;7.30;;;5.00;;
71106;SDS011;58763;47.982;11.516;2023-04-30T10:53:45;5.20;;;3.55;;
71106;SDS011;58763;47.982;11.516;2023-04-30T10:56:14;5.82;;;3.40;;
71106;SDS011;58763;47.982;11.516;2023-04-30T10:58:57;5.20;;;3.60;;
71106;SDS011;58763;47.982;11.516;2023-04-30T11:01:28;5.35;;;3.60;;
71106;SDS011;58763;47.982;11.516;2023-04-30T11:04:04;5.32;;;3.25;;
71106;SDS011;58763;47.982;11.516;2023-04-30T11:09:18;4.50;;;2.58;;
71106;SDS011;58763;47.982;11.516;2023-04-30T11:11:49;4.80;;;2.92;;
71106;SDS011;58763;47.982;11.516;2023-04-30T11:14:27;5.20;;;2.60;;
71106;SDS011;58763;47.982;11.516;2023-04-30T11:16:56;4.47;;;2.72;;
71106;SDS011;58763;47.982;11.516;2023-04-30T11:19:24;4.22;;;2.40;;
71106;SDS011;58763;47.982;11.516;2023-04-30T11:22:14;6.82;;;2.65;;
71106;SDS011;58763;47.982;11.516;2023-04-30T11:29:54;4.82;;;3.75;;
71106;SDS011;58763;47.982;11.516;2023-04-30T11:32:24;4.93;;;3.10;;
71106;SDS011;58763;47.982;11.516;2023-04-30T11:34:51;4.93;;;3.17;;
71106;SDS011;58763;47.982;11.516;2023-04-30T11:37:26;5.90;;;3.85;;
71106;SDS011;58763;47.982;11.516;2023-04-30T11:39:55;5.00;;;3.63;;
71106;SDS011;58763;47.982;11.516;2023-04-30T11:42:21;4.43;;;3.20;;
71106;SDS011;58763;47.982;11.516;2023-04-30T11:44:47;5.60;;;3.55;;
71106;SDS011;58763;47.982;11.516;2023-04-30T11:47:12;4.22;;;2.90;;
71106;SDS011;58763;47.982;11.516;2023-04-30T11:49:39;5.63;;;3.13;;
71106;SDS011;58763;47.982;11.516;2023-04-30T11:52:05;5.53;;;3.42;;
71106;SDS011;58763;47.982;11.516;2023-04-30T11:54:32;4.70;;;3.42;;
71106;SDS011;58763;47.982;11.516;2023-04-30T11:57:00;5.97;;;3.90;;
71106;SDS011;58763;47.982;11.516;2023-04-30T11:59:28;5.97;;;3.90;;
71106;SDS011;58763;47.982;11.516;2023-04-30T12:01:55;6.25;;;4.18;;
71106;SDS011;58763;47.982;11.516;2023-04-30T12:04:21;5.35;;;3.75;;
71106;SDS011;58763;47.982;11.516;2023-04-30T12:06:47;4.88;;;3.60;;
71106;SDS011;58763;47.982;11.516;2023-04-30T12:09:12;5.38;;;3.92;;
71106;SDS011;58763;47.982;11.516;2023-04-30T12:11:38;5.38;;;3.63;;
71106;SDS011;58763;47.982;11.516;2023-04-30T12:14:07;5.28;;;3.63;;
71106;SDS011;58763;47.982;11.516;2023-04-30T12:19:10;7.25;;;3.53;;
71106;SDS011;58763;47.982;11.516;2023-04-30T12:21:36;6.80;;;3.80;;
71106;SDS011;58763;47.982;11.516;2023-04-30T12:24:03;4.97;;;3.53;;
71106;SDS011;58763;47.982;11.516;2023-04-30T12:26:38;5.05;;;3.25;;
71106;SDS011;58763;47.982;11.516;2023-04-30T12:29:05;5.28;;;3.65;;
71106;SDS011;58763;47.982;11.516;2023-04-30T12:31:37;4.85;;;3.13;;
71106;SDS011;58763;47.982;11.516;2023-04-30T12:34:03;4.30;;;2.80;;
71106;SDS011;58763;47.982;11.516;2023-04-30T12:36:30;6.03;;;3.42;;
71106;SDS011;58763;47.982;11.516;2023-04-30T12:39:06;4.90;;;3.13;;
71106;SDS011;58763;47.982;11.516;2023-04-30T12:41:40;5.25;;;2.90;;
71106;SDS011;58763;47.982;11.516;2023-04-30T12:44:14;4.50;;;3.00;;
71106;SDS011;58763;47.982;11.516;2023-04-30T12:46:43;5.63;;;2.88;;
71106;SDS011;58763;47.982;11.516;2023-04-30T12:49:10;5.25;;;2.90;;
71106;SDS011;58763;47.982;11.516;2023-04-30T12:51:36;5.30;;;2.80;;
71106;SDS011;58763;47.982;11.516;2023-04-30T12:54:05;4.30;;;2.70;;
71106;SDS011;58763;47.982;11.516;2023-04-30T12:56:30;4.57;;;2.90;;
71106;SDS011;58763;47.982;11.516;2023-04-30T12:58:56;5.07;;;2.80;;
71106;SDS011;58763;47.982;11.516;2023-04-30T13:01:22;4.30;;;2.70;;
71106;SDS011;58763;47.982;11.516;2023-04-30T13:03:48;3.83;;;2.53;;
71106;SDS011;58763;47.982;11.516;2023-04-30T13:06:14;5.40;;;2.53;;
71106;SDS011;58763;47.982;11.516;2023-04-30T13:08:40;6.28;;;2.88;;
71106;SDS011;58763;47.982;11.516;2023-04-30T13:11:05;5.70;;;2.88;;
71106;SDS011;58763;47.982;11.516;2023-04-30T13:13:31;4.30;;;2.80;;
71106;SDS011;58763;47.982;11.516;2023-04-30T13:15:57;5.22;;;2.85;;
71106;SDS011;58763;47.982;11.516;2023-04-30T13:18:23;5.35;;;2.55;;
71106;SDS011;58763;47.982;11.516;2023-04-30T13:20:48;4.78;;;2.70;;
71106;SDS011;58763;47.982;11.516;2023-04-30T13:23:13;4.15;;;2.38;;
71106;SDS011;58763;47.982;11.516;2023-04-30T13:25:39;4.32;;;2.60;;
71106;SDS011;58763;47.982;11.516;2023-04-30T13:28:06;5.40;;;2.50;;
71106;SDS011;58763;47.982;11.516;2023-04-30T13:30:31;5.97;;;2.95;;
71106;SDS011;58763;47.982;11.516;2023-04-30T13:32:57;4.95;;;3.00;;
71106;SDS011;58763;47.982;11.516;2023-04-30T13:35:23;5.07;;;2.90;;
71106;SDS011;58763;47.982;11.516;2023-04-30T13:37:48;4.30;;;2.63;;
71106;SDS011;58763;47.982;11.516;2023-04-30T13:40:16;4.97;;;2.85;;
71106;SDS011;58763;47.982;11.516;2023-04-30T13:42:44;5.93;;;3.03;;
71106;SDS011;58763;47.982;11.516;2023-04-30T13:45:10;5.68;;;2.92;;
71106;SDS011;58763;47.982;11.516;2023-04-30T13:47:36;4.47;;;2.80;;
71106;SDS011;58763;47.982;11.516;2023-04-30T13:50:02;4.50;;;2.88;;
71106;SDS011;58763;47.982;11.516;2023-04-30T13:52:30;5.05;;;2.85;;
71106;SDS011;58763;47.982;11.516;2023-04-30T13:54:56;5.03;;;3.10;;
71106;SDS011;58763;47.982;11.516;2023-04-30T13:57:22;5.38;;;2.63;;
71106;SDS011;58763;47.982;11.516;2023-04-30T13:59:48;5.57;;;2.65;;
71106;SDS011;58763;47.982;11.516;2023-04-30T14:02:14;4.47;;;2.55;;
71106;SDS011;58763;47.982;11.516;2023-04-30T14:04:40;5.95;;;2.63;;
71106;SDS011;58763;47.982;11.516;2023-04-30T14:07:05;4.80;;;2.85;;
71106;SDS011;58763;47.982;11.516;2023-04-30T14:09:30;5.05;;;2.55;;
71106;SDS011;58763;47.982;11.516;2023-04-30T14:11:56;4.32;;;2.60;;
71106;SDS011;58763;47.982;11.516;2023-04-30T14:14:26;5.55;;;3.03;;
71106;SDS011;58763;47.982;11.516;2023-04-30T14:16:52;5.25;;;2.80;;
71106;SDS011;58763;47.982;11.516;2023-04-30T14:19:18;4.50;;;2.67;;
71106;SDS011;58763;47.982;11.516;2023-04-30T14:21:44;5.07;;;3.00;;
71106;SDS011;58763;47.982;11.516;2023-04-30T14:24:09;5.05;;;3.15;;
71106;SDS011;58763;47.982;11.516;2023-04-30T14:26:37;4.40;;;3.00;;
71106;SDS011;58763;47.982;11.516;2023-04-30T14:29:03;4.50;;;2.83;;
71106;SDS011;58763;47.982;11.516;2023-04-30T14:31:28;6.40;;;3.25;;
71106;SDS011;58763;47.982;11.516;2023-04-30T14:33:54;6.45;;;3.53;;
71106;SDS011;58763;47.982;11.516;2023-04-30T14:36:19;4.97;;;3.08;;
71106;SDS011;58763;47.982;11.516;2023-04-30T14:38:45;5.97;;;3.38;;
71106;SDS011;58763;47.982;11.516;2023-04-30T14:41:11;5.45;;;3.47;;
71106;SDS011;58763;47.982;11.516;2023-04-30T14:43:36;4.80;;;3.10;;
71106;SDS011;58763;47.982;11.516;2023-04-30T14:46:02;4.63;;;3.10;;
71106;SDS011;58763;47.982;11.516;2023-04-30T14:48:27;5.65;;;3.58;;
71106;SDS011;58763;47.982;11.516;2023-04-30T14:50:53;6.18;;;3.72;;
71106;SDS011;58763;47.982;11.516;2023-04-30T14:53:18;4.95;;;3.42;;
71106;SDS011;58763;47.982;11.516;2023-04-30T14:55:44;5.55;;;3.03;;
71106;SDS011;58763;47.982;11.516;2023-04-30T14:58:09;4.60;;;3.63;;
71106;SDS011;58763;47.982;11.516;2023-04-30T15:00:35;4.97;;;3.30;;
71106;SDS011;58763;47.982;11.516;2023-04-30T15:03:00;6.95;;;3.80;;